sensor_id;sensor_type;location;lat;lon;timestamp;P1;durP1;ratioP1;P2;durP2;ratioP2
18649;SDS011;9454;53.516;10.478;2023-08-12T00:02:25;3.22;;;1.35;;
18649;SDS011;9454;53.516;10.478;2023-08-12T00:05:29;5.22;;;1.73;;
18649;SDS011;9454;53.516;10.478;2023-08-12T00:08:33;3.70;;;1.50;;
18649;SDS011;9454;53.516;10.478;2023-08-12T00:11:37;4.28;;;1.80;;
18649;SDS011;9454;53.516;10.478;2023-08-12T00:14:44;2.45;;;1.40;;
18649;SDS011;9454;53.516;10.478;2023-08-12T00:17:48;1.42;;;1.30;;
18649;SDS011;9454;53.516;10.478;2023-08-12T00:20:51;6.72;;;1.65;;
18649;SDS011;9454;53.516;10.478;2023-08-12T00:23:56;2.00;;;1.40;;
18649;SDS011;9454;53.516;10.478;2023-08-12T00:27:00;6.50;;;1.60;;
18649;SDS011;9454;53.516;10.478;2023-08-12T00:30:06;2.42;;;1.65;;
18649;SDS011;9454;53.516;10.478;2023-08-12T00:33:10;4.47;;;1.42;;
18649;SDS011;9454;53.516;10.478;2023-08-12T00:36:14;2.47;;;1.38;;
18649;SDS011;9454;53.516;10.478;2023-08-12T00:39:18;2.20;;;1.50;;
18649;SDS011;9454;53.516;10.478;2023-08-12T00:42:21;3.83;;;1.50;;
18649;SDS011;9454;53.516;10.478;2023-08-12T00:45:26;4.30;;;1.58;;
18649;SDS011;9454;53.516;10.478;2023-08-12T00:48:30;3.13;;;1.58;;
18649;SDS011;9454;53.516;10.478;2023-08-12T00:51:34;1.58;;;1.48;;
18649;SDS011;9454;53.516;10.478;2023-08-12T00:54:38;2.15;;;1.40;;
18649;SDS011;9454;53.516;10.478;2023-08-12T00:57:42;2.75;;;1.67;;
18649;SDS011;9454;53.516;10.478;2023-08-12T01:00:48;1.63;;;1.35;;
18649;SDS011;9454;53.516;10.478;2023-08-12T01:03:53;3.30;;;1.15;;
18649;SDS011;9454;53.516;10.478;2023-08-12T01:06:56;6.03;;;1.63;;
18649;SDS011;9454;53.516;10.478;2023-08-12T01:10:02;1.63;;;1.30;;
18649;SDS011;9454;53.516;10.478;2023-08-12T01:13:08;2.05;;;1.30;;
18649;SDS011;9454;53.516;10.478;2023-08-12T01:16:17;4.57;;;1.65;;
18649;SDS011;9454;53.516;10.478;2023-08-12T01:19:24;1.90;;;1.45;;
18649;SDS011;9454;53.516;10.478;2023-08-12T01:22:32;2.03;;;1.45;;
18649;SDS011;9454;53.516;10.478;2023-08-12T01:25:39;4.03;;;1.60;;
18649;SDS011;9454;53.516;10.478;2023-08-12T01:28:43;4.60;;;1.15;;
18649;SDS011;9454;53.516;10.478;2023-08-12T01:31:48;1.95;;;1.30;;
18649;SDS011;9454;53.516;10.478;2023-08-12T01:34:56;1.90;;;1.55;;
18649;SDS011;9454;53.516;10.478;2023-08-12T01:38:02;3.08;;;1.70;;
18649;SDS011;9454;53.516;10.478;2023-08-12T01:41:09;3.13;;;1.30;;
18649;SDS011;9454;53.516;10.478;2023-08-12T01:44:13;3.75;;;1.67;;
18649;SDS011;9454;53.516;10.478;2023-08-12T01:47:17;1.88;;;1.20;;
18649;SDS011;9454;53.516;10.478;2023-08-12T01:50:21;2.58;;;1.40;;
18649;SDS011;9454;53.516;10.478;2023-08-12T01:53:27;1.70;;;1.20;;
18649;SDS011;9454;53.516;10.478;2023-08-12T01:56:32;2.20;;;1.40;;
18649;SDS011;9454;53.516;10.478;2023-08-12T01:59:36;1.60;;;1.33;;
18649;SDS011;9454;53.516;10.478;2023-08-12T02:02:40;2.58;;;1.50;;
18649;SDS011;9454;53.516;10.478;2023-08-12T02:05:48;3.03;;;2.10;;
18649;SDS011;9454;53.516;10.478;2023-08-12T02:08:51;2.45;;;1.30;;
18649;SDS011;9454;53.516;10.478;2023-08-12T02:11:56;4.63;;;1.70;;
18649;SDS011;9454;53.516;10.478;2023-08-12T02:15:01;2.25;;;1.40;;
18649;SDS011;9454;53.516;10.478;2023-08-12T02:18:04;7.53;;;1.52;;
18649;SDS011;9454;53.516;10.478;2023-08-12T02:21:08;2.03;;;1.35;;
18649;SDS011;9454;53.516;10.478;2023-08-12T02:24:12;3.33;;;1.60;;
18649;SDS011;9454;53.516;10.478;2023-08-12T02:27:17;2.40;;;1.40;;
18649;SDS011;9454;53.516;10.478;2023-08-12T02:30:21;3.63;;;1.40;;
18649;SDS011;9454;53.516;10.478;2023-08-12T02:33:25;2.83;;;1.40;;
18649;SDS011;9454;53.516;10.478;2023-08-12T02:36:29;1.88;;;1.58;;
18649;SDS011;9454;53.516;10.478;2023-08-12T02:39:35;1.92;;;1.40;;
18649;SDS011;9454;53.516;10.478;2023-08-12T02:42:40;4.45;;;1.30;;
18649;SDS011;9454;53.516;10.478;2023-08-12T02:45:44;1.42;;;1.33;;
18649;SDS011;9454;53.516;10.478;2023-08-12T02:48:48;2.50;;;1.67;;
18649;SDS011;9454;53.516;10.478;2023-08-12T02:51:52;7.50;;;1.25;;
18649;SDS011;9454;53.516;10.478;2023-08-12T02:54:55;3.95;;;1.63;;
18649;SDS011;9454;53.516;10.478;2023-08-12T02:58:01;1.77;;;1.35;;
18649;SDS011;9454;53.516;10.478;2023-08-12T03:01:05;1.80;;;1.45;;
18649;SDS011;9454;53.516;10.478;2023-08-12T03:04:09;2.88;;;1.40;;
18649;SDS011;9454;53.516;10.478;2023-08-12T03:07:12;3.70;;;1.75;;
18649;SDS011;9454;53.516;10.478;2023-08-12T03:10:16;5.63;;;1.10;;
18649;SDS011;9454;53.516;10.478;2023-08-12T03:13:22;2.83;;;1.55;;
18649;SDS011;9454;53.516;10.478;2023-08-12T03:16:30;2.78;;;1.67;;
18649;SDS011;9454;53.516;10.478;2023-08-12T03:19:33;2.90;;;1.92;;
18649;SDS011;9454;53.516;10.478;2023-08-12T03:22:38;6.68;;;1.50;;
18649;SDS011;9454;53.516;10.478;2023-08-12T03:25:43;5.47;;;1.42;;
18649;SDS011;9454;53.516;10.478;2023-08-12T03:28:49;1.85;;;1.67;;
18649;SDS011;9454;53.516;10.478;2023-08-12T03:31:53;6.70;;;1.38;;
18649;SDS011;9454;53.516;10.478;2023-08-12T03:34:58;2.28;;;1.52;;
18649;SDS011;9454;53.516;10.478;2023-08-12T03:38:04;2.45;;;1.50;;
18649;SDS011;9454;53.516;10.478;2023-08-12T03:41:07;2.22;;;1.10;;
18649;SDS011;9454;53.516;10.478;2023-08-12T03:44:13;4.70;;;1.42;;
18649;SDS011;9454;53.516;10.478;2023-08-12T03:47:16;2.42;;;1.45;;
18649;SDS011;9454;53.516;10.478;2023-08-12T03:50:23;4.47;;;1.50;;
18649;SDS011;9454;53.516;10.478;2023-08-12T03:53:27;1.40;;;1.10;;
18649;SDS011;9454;53.516;10.478;2023-08-12T03:56:32;2.97;;;1.33;;
18649;SDS011;9454;53.516;10.478;2023-08-12T03:59:40;2.38;;;1.48;;
18649;SDS011;9454;53.516;10.478;2023-08-12T04:02:43;2.03;;;1.55;;
18649;SDS011;9454;53.516;10.478;2023-08-12T04:05:48;5.63;;;1.52;;
18649;SDS011;9454;53.516;10.478;2023-08-12T04:08:54;1.92;;;1.30;;
18649;SDS011;9454;53.516;10.478;2023-08-12T04:11:57;3.55;;;1.38;;
18649;SDS011;9454;53.516;10.478;2023-08-12T04:15:02;3.25;;;1.65;;
18649;SDS011;9454;53.516;10.478;2023-08-12T04:18:07;2.67;;;1.52;;
18649;SDS011;9454;53.516;10.478;2023-08-12T04:21:10;2.80;;;1.33;;
18649;SDS011;9454;53.516;10.478;2023-08-12T04:24:14;1.70;;;1.23;;
18649;SDS011;9454;53.516;10.478;2023-08-12T04:27:18;4.05;;;1.50;;
18649;SDS011;9454;53.516;10.478;2023-08-12T04:30:24;3.22;;;1.40;;
18649;SDS011;9454;53.516;10.478;2023-08-12T04:33:29;1.88;;;1.17;;
18649;SDS011;9454;53.516;10.478;2023-08-12T04:36:32;3.47;;;1.25;;
18649;SDS011;9454;53.516;10.478;2023-08-12T04:39:38;3.28;;;1.42;;
18649;SDS011;9454;53.516;10.478;2023-08-12T04:42:43;4.93;;;1.38;;
18649;SDS011;9454;53.516;10.478;2023-08-12T04:45:51;3.20;;;1.60;;
18649;SDS011;9454;53.516;10.478;2023-08-12T04:48:55;2.38;;;1.40;;
18649;SDS011;9454;53.516;10.478;2023-08-12T04:51:59;2.08;;;1.50;;
18649;SDS011;9454;53.516;10.478;2023-08-12T04:55:03;6.38;;;1.35;;
18649;SDS011;9454;53.516;10.478;2023-08-12T04:58:07;2.88;;;1.42;;
18649;SDS011;9454;53.516;10.478;2023-08-12T05:01:12;1.90;;;1.17;;
18649;SDS011;9454;53.516;10.478;2023-08-12T05:04:16;2.72;;;1.60;;
18649;SDS011;9454;53.516;10.478;2023-08-12T05:07:20;5.72;;;1.58;;
18649;SDS011;9454;53.516;10.478;2023-08-12T05:10:24;1.80;;;1.27;;
18649;SDS011;9454;53.516;10.478;2023-08-12T05:13:27;3.13;;;1.75;;
18649;SDS011;9454;53.516;10.478;2023-08-12T05:16:33;3.88;;;1.48;;
18649;SDS011;9454;53.516;10.478;2023-08-12T05:19:36;3.97;;;1.52;;
18649;SDS011;9454;53.516;10.478;2023-08-12T05:22:41;2.72;;;1.45;;
18649;SDS011;9454;53.516;10.478;2023-08-12T05:25:45;3.08;;;1.58;;
18649;SDS011;9454;53.516;10.478;2023-08-12T05:28:49;4.40;;;1.17;;
18649;SDS011;9454;53.516;10.478;2023-08-12T05:31:54;1.90;;;1.70;;
18649;SDS011;9454;53.516;10.478;2023-08-12T05:34:57;3.67;;;1.80;;
18649;SDS011;9454;53.516;10.478;2023-08-12T05:38:01;2.97;;;1.58;;
18649;SDS011;9454;53.516;10.478;2023-08-12T05:41:05;1.67;;;1.40;;
18649;SDS011;9454;53.516;10.478;2023-08-12T05:44:10;2.45;;;1.60;;
18649;SDS011;9454;53.516;10.478;2023-08-12T05:47:15;4.45;;;1.55;;
18649;SDS011;9454;53.516;10.478;2023-08-12T05:50:18;3.65;;;1.35;;
18649;SDS011;9454;53.516;10.478;2023-08-12T05:53:22;5.13;;;1.63;;
18649;SDS011;9454;53.516;10.478;2023-08-12T05:56:25;2.53;;;1.60;;
18649;SDS011;9454;53.516;10.478;2023-08-12T05:59:29;1.52;;;1.20;;
18649;SDS011;9454;53.516;10.478;2023-08-12T06:02:34;6.85;;;1.77;;
18649;SDS011;9454;53.516;10.478;2023-08-12T06:05:38;2.67;;;1.50;;
18649;SDS011;9454;53.516;10.478;2023-08-12T06:08:41;2.22;;;1.55;;
18649;SDS011;9454;53.516;10.478;2023-08-12T06:11:45;3.28;;;1.60;;
18649;SDS011;9454;53.516;10.478;2023-08-12T06:14:49;7.30;;;1.70;;
18649;SDS011;9454;53.516;10.478;2023-08-12T06:17:54;4.47;;;1.40;;
18649;SDS011;9454;53.516;10.478;2023-08-12T06:20:58;1.50;;;1.40;;
18649;SDS011;9454;53.516;10.478;2023-08-12T06:24:01;2.63;;;1.30;;
18649;SDS011;9454;53.516;10.478;2023-08-12T06:27:05;5.05;;;1.92;;
18649;SDS011;9454;53.516;10.478;2023-08-12T06:30:09;4.88;;;1.88;;
18649;SDS011;9454;53.516;10.478;2023-08-12T06:33:14;3.00;;;1.80;;
18649;SDS011;9454;53.516;10.478;2023-08-12T06:36:18;4.38;;;1.73;;
18649;SDS011;9454;53.516;10.478;2023-08-12T06:39:21;2.30;;;1.67;;
18649;SDS011;9454;53.516;10.478;2023-08-12T06:42:25;2.42;;;1.67;;
18649;SDS011;9454;53.516;10.478;2023-08-12T06:45:29;3.60;;;1.83;;
18649;SDS011;9454;53.516;10.478;2023-08-12T06:48:34;2.88;;;1.80;;
18649;SDS011;9454;53.516;10.478;2023-08-12T06:51:38;4.00;;;1.58;;
18649;SDS011;9454;53.516;10.478;2023-08-12T06:54:41;2.08;;;1.63;;
18649;SDS011;9454;53.516;10.478;2023-08-12T06:57:45;2.78;;;1.63;;
18649;SDS011;9454;53.516;10.478;2023-08-12T07:00:49;2.30;;;1.70;;
18649;SDS011;9454;53.516;10.478;2023-08-12T07:03:55;2.63;;;1.77;;
18649;SDS011;9454;53.516;10.478;2023-08-12T07:06:59;2.97;;;1.40;;
18649;SDS011;9454;53.516;10.478;2023-08-12T07:10:03;5.55;;;1.77;;
18649;SDS011;9454;53.516;10.478;2023-08-12T07:13:07;6.45;;;1.40;;
18649;SDS011;9454;53.516;10.478;2023-08-12T07:16:11;1.73;;;1.58;;
18649;SDS011;9454;53.516;10.478;2023-08-12T07:19:16;5.25;;;1.90;;
18649;SDS011;9454;53.516;10.478;2023-08-12T07:22:19;3.88;;;1.77;;
18649;SDS011;9454;53.516;10.478;2023-08-12T07:25:23;7.18;;;1.50;;
18649;SDS011;9454;53.516;10.478;2023-08-12T07:28:27;8.63;;;1.67;;
18649;SDS011;9454;53.516;10.478;2023-08-12T07:31:30;5.82;;;1.90;;
18649;SDS011;9454;53.516;10.478;2023-08-12T07:34:36;3.38;;;1.67;;
18649;SDS011;9454;53.516;10.478;2023-08-12T07:37:39;5.05;;;1.80;;
18649;SDS011;9454;53.516;10.478;2023-08-12T07:40:43;2.20;;;1.58;;
18649;SDS011;9454;53.516;10.478;2023-08-12T07:43:47;5.10;;;1.88;;
18649;SDS011;9454;53.516;10.478;2023-08-12T07:46:51;4.35;;;2.15;;
18649;SDS011;9454;53.516;10.478;2023-08-12T07:49:56;2.97;;;2.03;;
18649;SDS011;9454;53.516;10.478;2023-08-12T07:53:01;5.43;;;2.20;;
18649;SDS011;9454;53.516;10.478;2023-08-12T07:56:04;8.25;;;1.90;;
18649;SDS011;9454;53.516;10.478;2023-08-12T07:59:08;5.32;;;1.73;;
18649;SDS011;9454;53.516;10.478;2023-08-12T08:02:11;2.58;;;1.98;;
18649;SDS011;9454;53.516;10.478;2023-08-12T08:05:17;2.72;;;1.73;;
18649;SDS011;9454;53.516;10.478;2023-08-12T08:08:21;4.13;;;1.90;;
18649;SDS011;9454;53.516;10.478;2023-08-12T08:11:24;11.90;;;2.55;;
18649;SDS011;9454;53.516;10.478;2023-08-12T08:14:29;3.33;;;2.00;;
18649;SDS011;9454;53.516;10.478;2023-08-12T08:17:33;7.25;;;2.28;;
18649;SDS011;9454;53.516;10.478;2023-08-12T08:20:41;4.97;;;2.40;;
18649;SDS011;9454;53.516;10.478;2023-08-12T08:23:46;5.68;;;2.15;;
18649;SDS011;9454;53.516;10.478;2023-08-12T08:26:50;2.67;;;1.95;;
18649;SDS011;9454;53.516;10.478;2023-08-12T08:29:53;5.22;;;2.03;;
18649;SDS011;9454;53.516;10.478;2023-08-12T08:32:57;4.82;;;2.53;;
18649;SDS011;9454;53.516;10.478;2023-08-12T08:36:02;4.95;;;2.75;;
18649;SDS011;9454;53.516;10.478;2023-08-12T08:39:06;3.25;;;2.33;;
18649;SDS011;9454;53.516;10.478;2023-08-12T08:42:10;7.20;;;2.30;;
18649;SDS011;9454;53.516;10.478;2023-08-12T08:45:15;2.80;;;1.90;;
18649;SDS011;9454;53.516;10.478;2023-08-12T08:48:19;10.10;;;2.17;;
18649;SDS011;9454;53.516;10.478;2023-08-12T08:51:24;7.13;;;2.53;;
18649;SDS011;9454;53.516;10.478;2023-08-12T08:54:28;3.90;;;2.05;;
18649;SDS011;9454;53.516;10.478;2023-08-12T08:57:32;5.10;;;2.53;;
18649;SDS011;9454;53.516;10.478;2023-08-12T09:00:46;8.15;;;2.42;;
18649;SDS011;9454;53.516;10.478;2023-08-12T09:03:50;3.00;;;2.15;;
18649;SDS011;9454;53.516;10.478;2023-08-12T09:06:57;5.70;;;2.38;;
18649;SDS011;9454;53.516;10.478;2023-08-12T09:10:01;3.80;;;2.20;;
18649;SDS011;9454;53.516;10.478;2023-08-12T09:13:07;8.55;;;2.35;;
18649;SDS011;9454;53.516;10.478;2023-08-12T09:16:11;3.40;;;2.33;;
18649;SDS011;9454;53.516;10.478;2023-08-12T09:19:15;4.63;;;2.42;;
18649;SDS011;9454;53.516;10.478;2023-08-12T09:22:20;3.53;;;2.08;;
18649;SDS011;9454;53.516;10.478;2023-08-12T09:25:26;3.85;;;2.17;;
18649;SDS011;9454;53.516;10.478;2023-08-12T09:28:31;5.57;;;3.47;;
18649;SDS011;9454;53.516;10.478;2023-08-12T09:31:34;5.00;;;2.28;;
18649;SDS011;9454;53.516;10.478;2023-08-12T09:34:38;5.85;;;2.38;;
18649;SDS011;9454;53.516;10.478;2023-08-12T09:37:42;4.85;;;2.38;;
18649;SDS011;9454;53.516;10.478;2023-08-12T09:40:46;4.05;;;2.58;;
18649;SDS011;9454;53.516;10.478;2023-08-12T09:43:50;5.10;;;2.97;;
18649;SDS011;9454;53.516;10.478;2023-08-12T09:46:57;5.13;;;2.05;;
18649;SDS011;9454;53.516;10.478;2023-08-12T09:50:00;3.83;;;2.35;;
18649;SDS011;9454;53.516;10.478;2023-08-12T09:53:06;3.58;;;2.40;;
18649;SDS011;9454;53.516;10.478;2023-08-12T09:56:11;4.30;;;2.67;;
18649;SDS011;9454;53.516;10.478;2023-08-12T09:59:15;6.97;;;2.25;;
18649;SDS011;9454;53.516;10.478;2023-08-12T10:02:20;8.18;;;2.25;;
18649;SDS011;9454;53.516;10.478;2023-08-12T10:05:27;4.82;;;2.25;;
18649;SDS011;9454;53.516;10.478;2023-08-12T10:08:32;7.72;;;2.88;;
18649;SDS011;9454;53.516;10.478;2023-08-12T10:11:39;5.07;;;2.38;;
18649;SDS011;9454;53.516;10.478;2023-08-12T10:14:43;3.33;;;2.17;;
18649;SDS011;9454;53.516;10.478;2023-08-12T10:17:48;3.47;;;2.35;;
18649;SDS011;9454;53.516;10.478;2023-08-12T10:20:54;6.25;;;2.95;;
18649;SDS011;9454;53.516;10.478;2023-08-12T10:24:02;13.30;;;2.60;;
18649;SDS011;9454;53.516;10.478;2023-08-12T10:27:10;4.20;;;2.45;;
18649;SDS011;9454;53.516;10.478;2023-08-12T10:30:15;6.32;;;2.30;;
18649;SDS011;9454;53.516;10.478;2023-08-12T10:33:19;5.57;;;2.17;;
18649;SDS011;9454;53.516;10.478;2023-08-12T10:36:23;5.03;;;2.50;;
18649;SDS011;9454;53.516;10.478;2023-08-12T10:39:28;6.72;;;2.67;;
18649;SDS011;9454;53.516;10.478;2023-08-12T10:42:41;3.90;;;2.10;;
18649;SDS011;9454;53.516;10.478;2023-08-12T10:45:46;4.90;;;2.08;;
18649;SDS011;9454;53.516;10.478;2023-08-12T10:48:59;5.43;;;2.50;;
18649;SDS011;9454;53.516;10.478;2023-08-12T10:52:05;5.40;;;2.13;;
18649;SDS011;9454;53.516;10.478;2023-08-12T10:55:17;3.20;;;2.20;;
18649;SDS011;9454;53.516;10.478;2023-08-12T10:58:24;6.18;;;2.30;;
18649;SDS011;9454;53.516;10.478;2023-08-12T11:01:29;10.50;;;2.85;;
18649;SDS011;9454;53.516;10.478;2023-08-12T11:04:36;5.28;;;2.65;;
18649;SDS011;9454;53.516;10.478;2023-08-12T11:07:40;7.68;;;2.58;;
18649;SDS011;9454;53.516;10.478;2023-08-12T11:10:46;2.72;;;2.38;;
18649;SDS011;9454;53.516;10.478;2023-08-12T11:13:52;3.05;;;2.30;;
18649;SDS011;9454;53.516;10.478;2023-08-12T11:16:56;4.68;;;2.45;;
18649;SDS011;9454;53.516;10.478;2023-08-12T11:20:00;4.35;;;2.20;;
18649;SDS011;9454;53.516;10.478;2023-08-12T11:23:05;4.88;;;2.50;;
18649;SDS011;9454;53.516;10.478;2023-08-12T11:26:11;5.30;;;2.35;;
18649;SDS011;9454;53.516;10.478;2023-08-12T11:29:15;6.47;;;2.28;;
18649;SDS011;9454;53.516;10.478;2023-08-12T11:32:19;4.85;;;2.45;;
18649;SDS011;9454;53.516;10.478;2023-08-12T11:35:23;5.78;;;2.45;;
18649;SDS011;9454;53.516;10.478;2023-08-12T11:38:27;4.65;;;2.80;;
18649;SDS011;9454;53.516;10.478;2023-08-12T11:41:32;5.50;;;2.30;;
18649;SDS011;9454;53.516;10.478;2023-08-12T11:44:36;6.97;;;2.38;;
18649;SDS011;9454;53.516;10.478;2023-08-12T11:47:43;4.35;;;2.42;;
18649;SDS011;9454;53.516;10.478;2023-08-12T11:50:48;6.95;;;2.78;;
18649;SDS011;9454;53.516;10.478;2023-08-12T11:53:52;10.45;;;2.45;;
18649;SDS011;9454;53.516;10.478;2023-08-12T11:56:57;6.43;;;2.40;;
18649;SDS011;9454;53.516;10.478;2023-08-12T12:00:02;5.40;;;2.60;;
18649;SDS011;9454;53.516;10.478;2023-08-12T12:03:15;4.18;;;2.53;;
18649;SDS011;9454;53.516;10.478;2023-08-12T12:06:27;4.45;;;2.22;;
18649;SDS011;9454;53.516;10.478;2023-08-12T12:09:31;4.57;;;2.38;;
18649;SDS011;9454;53.516;10.478;2023-08-12T12:12:36;3.72;;;2.28;;
18649;SDS011;9454;53.516;10.478;2023-08-12T12:15:41;4.82;;;2.92;;
18649;SDS011;9454;53.516;10.478;2023-08-12T12:18:45;6.03;;;2.20;;
18649;SDS011;9454;53.516;10.478;2023-08-12T12:21:49;4.93;;;2.53;;
18649;SDS011;9454;53.516;10.478;2023-08-12T12:24:53;7.20;;;2.80;;
18649;SDS011;9454;53.516;10.478;2023-08-12T12:27:58;7.10;;;2.70;;
18649;SDS011;9454;53.516;10.478;2023-08-12T12:31:02;4.45;;;2.88;;
18649;SDS011;9454;53.516;10.478;2023-08-12T12:34:05;5.03;;;2.50;;
18649;SDS011;9454;53.516;10.478;2023-08-12T12:37:11;6.00;;;2.92;;
18649;SDS011;9454;53.516;10.478;2023-08-12T12:40:14;4.60;;;3.15;;
18649;SDS011;9454;53.516;10.478;2023-08-12T12:43:21;8.65;;;3.20;;
18649;SDS011;9454;53.516;10.478;2023-08-12T12:46:25;5.63;;;3.30;;
18649;SDS011;9454;53.516;10.478;2023-08-12T12:49:29;5.47;;;3.17;;
18649;SDS011;9454;53.516;10.478;2023-08-12T12:52:32;5.70;;;2.67;;
18649;SDS011;9454;53.516;10.478;2023-08-12T12:55:36;5.90;;;3.15;;
18649;SDS011;9454;53.516;10.478;2023-08-12T12:58:41;4.47;;;2.95;;
18649;SDS011;9454;53.516;10.478;2023-08-12T13:01:45;4.30;;;2.90;;
18649;SDS011;9454;53.516;10.478;2023-08-12T13:04:48;6.30;;;3.55;;
18649;SDS011;9454;53.516;10.478;2023-08-12T13:07:52;5.28;;;3.03;;
18649;SDS011;9454;53.516;10.478;2023-08-12T13:10:56;5.10;;;3.63;;
18649;SDS011;9454;53.516;10.478;2023-08-12T13:14:01;4.95;;;3.55;;
18649;SDS011;9454;53.516;10.478;2023-08-12T13:17:05;11.38;;;3.78;;
18649;SDS011;9454;53.516;10.478;2023-08-12T13:20:09;5.57;;;3.15;;
18649;SDS011;9454;53.516;10.478;2023-08-12T13:23:14;4.95;;;3.22;;
18649;SDS011;9454;53.516;10.478;2023-08-12T13:26:18;4.72;;;3.00;;
18649;SDS011;9454;53.516;10.478;2023-08-12T13:29:22;4.07;;;3.08;;
18649;SDS011;9454;53.516;10.478;2023-08-12T13:32:27;10.63;;;2.88;;
18649;SDS011;9454;53.516;10.478;2023-08-12T13:35:31;5.70;;;3.40;;
18649;SDS011;9454;53.516;10.478;2023-08-12T13:38:34;7.93;;;3.47;;
18649;SDS011;9454;53.516;10.478;2023-08-12T13:41:38;5.93;;;3.40;;
18649;SDS011;9454;53.516;10.478;2023-08-12T13:44:43;8.23;;;3.03;;
18649;SDS011;9454;53.516;10.478;2023-08-12T13:47:47;5.47;;;3.38;;
18649;SDS011;9454;53.516;10.478;2023-08-12T13:50:51;6.95;;;3.28;;
18649;SDS011;9454;53.516;10.478;2023-08-12T13:53:54;9.27;;;3.50;;
18649;SDS011;9454;53.516;10.478;2023-08-12T13:56:58;5.03;;;3.22;;
18649;SDS011;9454;53.516;10.478;2023-08-12T14:00:07;6.50;;;3.35;;
18649;SDS011;9454;53.516;10.478;2023-08-12T14:03:19;5.13;;;3.08;;
18649;SDS011;9454;53.516;10.478;2023-08-12T14:06:22;9.98;;;3.70;;
18649;SDS011;9454;53.516;10.478;2023-08-12T14:09:26;6.20;;;3.22;;
18649;SDS011;9454;53.516;10.478;2023-08-12T14:12:29;7.10;;;3.78;;
18649;SDS011;9454;53.516;10.478;2023-08-12T14:15:34;5.88;;;3.15;;
18649;SDS011;9454;53.516;10.478;2023-08-12T14:18:38;6.13;;;3.22;;
18649;SDS011;9454;53.516;10.478;2023-08-12T14:21:41;6.65;;;3.70;;
18649;SDS011;9454;53.516;10.478;2023-08-12T14:24:45;5.38;;;3.42;;
18649;SDS011;9454;53.516;10.478;2023-08-12T14:27:49;8.65;;;3.42;;
18649;SDS011;9454;53.516;10.478;2023-08-12T14:30:54;5.80;;;3.42;;
18649;SDS011;9454;53.516;10.478;2023-08-12T14:33:58;7.57;;;3.67;;
18649;SDS011;9454;53.516;10.478;2023-08-12T14:37:05;4.68;;;2.90;;
18649;SDS011;9454;53.516;10.478;2023-08-12T14:40:09;7.25;;;3.75;;
18649;SDS011;9454;53.516;10.478;2023-08-12T14:43:14;5.70;;;3.08;;
18649;SDS011;9454;53.516;10.478;2023-08-12T14:46:19;4.57;;;3.33;;
18649;SDS011;9454;53.516;10.478;2023-08-12T14:49:22;5.50;;;3.67;;
18649;SDS011;9454;53.516;10.478;2023-08-12T14:52:26;5.43;;;3.63;;
18649;SDS011;9454;53.516;10.478;2023-08-12T14:55:30;7.55;;;3.35;;
18649;SDS011;9454;53.516;10.478;2023-08-12T14:58:33;4.88;;;3.10;;
18649;SDS011;9454;53.516;10.478;2023-08-12T15:01:38;3.80;;;3.15;;
18649;SDS011;9454;53.516;10.478;2023-08-12T15:04:42;8.52;;;3.72;;
18649;SDS011;9454;53.516;10.478;2023-08-12T15:07:46;5.30;;;3.53;;
18649;SDS011;9454;53.516;10.478;2023-08-12T15:10:49;5.50;;;3.20;;
18649;SDS011;9454;53.516;10.478;2023-08-12T15:13:54;5.25;;;3.13;;
18649;SDS011;9454;53.516;10.478;2023-08-12T15:16:59;6.80;;;3.72;;
18649;SDS011;9454;53.516;10.478;2023-08-12T15:20:03;5.43;;;3.45;;
18649;SDS011;9454;53.516;10.478;2023-08-12T15:23:07;5.13;;;3.15;;
18649;SDS011;9454;53.516;10.478;2023-08-12T15:26:10;5.43;;;3.35;;
18649;SDS011;9454;53.516;10.478;2023-08-12T15:29:14;4.72;;;3.15;;
18649;SDS011;9454;53.516;10.478;2023-08-12T15:32:18;5.22;;;3.33;;
18649;SDS011;9454;53.516;10.478;2023-08-12T15:35:22;6.57;;;3.75;;
18649;SDS011;9454;53.516;10.478;2023-08-12T15:38:26;6.90;;;3.47;;
18649;SDS011;9454;53.516;10.478;2023-08-12T15:41:29;9.00;;;3.63;;
18649;SDS011;9454;53.516;10.478;2023-08-12T15:44:55;6.47;;;3.13;;
18649;SDS011;9454;53.516;10.478;2023-08-12T15:48:14;5.80;;;2.50;;
18649;SDS011;9454;53.516;10.478;2023-08-12T15:51:24;5.93;;;2.50;;
18649;SDS011;9454;53.516;10.478;2023-08-12T15:54:30;3.97;;;2.33;;
18649;SDS011;9454;53.516;10.478;2023-08-12T15:57:34;6.03;;;3.25;;
18649;SDS011;9454;53.516;10.478;2023-08-12T16:00:38;6.70;;;3.00;;
18649;SDS011;9454;53.516;10.478;2023-08-12T16:03:45;6.35;;;2.63;;
18649;SDS011;9454;53.516;10.478;2023-08-12T16:06:49;4.38;;;3.28;;
18649;SDS011;9454;53.516;10.478;2023-08-12T16:09:53;3.63;;;2.53;;
18649;SDS011;9454;53.516;10.478;2023-08-12T16:12:56;5.78;;;3.22;;
18649;SDS011;9454;53.516;10.478;2023-08-12T16:16:01;4.13;;;2.90;;
18649;SDS011;9454;53.516;10.478;2023-08-12T16:19:06;3.60;;;2.63;;
18649;SDS011;9454;53.516;10.478;2023-08-12T16:22:09;3.55;;;2.28;;
18649;SDS011;9454;53.516;10.478;2023-08-12T16:25:13;3.60;;;2.58;;
18649;SDS011;9454;53.516;10.478;2023-08-12T16:28:17;4.53;;;2.28;;
18649;SDS011;9454;53.516;10.478;2023-08-12T16:31:21;5.10;;;2.75;;
18649;SDS011;9454;53.516;10.478;2023-08-12T16:34:26;3.95;;;2.53;;
18649;SDS011;9454;53.516;10.478;2023-08-12T16:37:30;5.07;;;2.60;;
18649;SDS011;9454;53.516;10.478;2023-08-12T16:40:33;4.72;;;2.40;;
18649;SDS011;9454;53.516;10.478;2023-08-12T16:43:38;4.15;;;2.58;;
18649;SDS011;9454;53.516;10.478;2023-08-12T16:46:42;3.53;;;2.53;;
18649;SDS011;9454;53.516;10.478;2023-08-12T16:49:47;3.85;;;2.40;;
18649;SDS011;9454;53.516;10.478;2023-08-12T16:52:52;4.53;;;2.75;;
18649;SDS011;9454;53.516;10.478;2023-08-12T16:55:55;4.00;;;2.60;;
18649;SDS011;9454;53.516;10.478;2023-08-12T16:58:59;4.30;;;2.40;;
18649;SDS011;9454;53.516;10.478;2023-08-12T17:02:02;2.42;;;1.90;;
18649;SDS011;9454;53.516;10.478;2023-08-12T17:05:09;2.05;;;1.77;;
18649;SDS011;9454;53.516;10.478;2023-08-12T17:08:13;8.48;;;2.20;;
18649;SDS011;9454;53.516;10.478;2023-08-12T17:11:18;2.03;;;1.23;;
18649;SDS011;9454;53.516;10.478;2023-08-12T17:14:21;0.85;;;0.70;;
18649;SDS011;9454;53.516;10.478;2023-08-12T17:17:25;1.27;;;0.60;;
18649;SDS011;9454;53.516;10.478;2023-08-12T17:20:30;1.15;;;0.55;;
18649;SDS011;9454;53.516;10.478;2023-08-12T17:23:34;0.50;;;0.50;;
18649;SDS011;9454;53.516;10.478;2023-08-12T17:26:38;0.80;;;0.55;;
18649;SDS011;9454;53.516;10.478;2023-08-12T17:29:42;0.68;;;0.68;;
18649;SDS011;9454;53.516;10.478;2023-08-12T17:32:46;0.40;;;0.40;;
18649;SDS011;9454;53.516;10.478;2023-08-12T17:35:52;3.13;;;0.40;;
18649;SDS011;9454;53.516;10.478;2023-08-12T17:38:57;0.40;;;0.40;;
18649;SDS011;9454;53.516;10.478;2023-08-12T17:42:01;0.45;;;0.43;;
18649;SDS011;9454;53.516;10.478;2023-08-12T17:45:06;0.60;;;0.47;;
18649;SDS011;9454;53.516;10.478;2023-08-12T17:48:10;0.85;;;0.60;;
18649;SDS011;9454;53.516;10.478;2023-08-12T17:51:15;2.78;;;0.60;;
18649;SDS011;9454;53.516;10.478;2023-08-12T17:54:19;1.83;;;0.55;;
18649;SDS011;9454;53.516;10.478;2023-08-12T17:57:22;1.38;;;0.75;;
18649;SDS011;9454;53.516;10.478;2023-08-12T18:00:27;1.63;;;0.50;;
18649;SDS011;9454;53.516;10.478;2023-08-12T18:03:34;0.88;;;0.73;;
18649;SDS011;9454;53.516;10.478;2023-08-12T18:06:41;1.23;;;0.80;;
18649;SDS011;9454;53.516;10.478;2023-08-12T18:09:45;0.65;;;0.60;;
18649;SDS011;9454;53.516;10.478;2023-08-12T18:12:49;1.90;;;0.90;;
18649;SDS011;9454;53.516;10.478;2023-08-12T18:15:52;1.10;;;0.73;;
18649;SDS011;9454;53.516;10.478;2023-08-12T18:18:56;0.95;;;0.85;;
18649;SDS011;9454;53.516;10.478;2023-08-12T18:22:01;1.17;;;0.68;;
18649;SDS011;9454;53.516;10.478;2023-08-12T18:25:05;2.78;;;1.10;;
18649;SDS011;9454;53.516;10.478;2023-08-12T18:28:08;2.35;;;1.00;;
18649;SDS011;9454;53.516;10.478;2023-08-12T18:31:12;1.33;;;0.98;;
18649;SDS011;9454;53.516;10.478;2023-08-12T18:34:16;1.90;;;1.13;;